createdAt,value
2023-01-21T00:00:12.138Z,28.35
2023-01-21T00:00:44.749Z,28.32
2023-01-21T00:01:12.175Z,28.33
2023-01-21T00:01:42.169Z,28.32
2023-01-21T00:02:12.308Z,28.30
2023-01-21T00:02:42.332Z,28.35
2023-01-21T00:03:12.354Z,28.38
2023-01-21T00:03:42.412Z,28.37
2023-01-21T00:04:12.445Z,28.30
2023-01-21T00:04:42.470Z,28.35
2023-01-21T00:05:12.491Z,28.32
2023-01-21T00:05:42.566Z,28.30
2023-01-21T00:06:12.559Z,28.29
2023-01-21T00:06:42.581Z,28.32
2023-01-21T00:07:12.609Z,28.27
2023-01-21T00:07:42.625Z,28.30
2023-01-21T00:08:12.653Z,28.29
2023-01-21T00:08:42.709Z,28.32
2023-01-21T00:09:12.698Z,28.30
2023-01-21T00:09:42.722Z,28.29
2023-01-21T00:10:12.745Z,28.30
2023-01-21T00:10:42.788Z,28.29
2023-01-21T00:11:12.819Z,28.30
2023-01-21T00:11:42.832Z,28.29
2023-01-21T00:12:12.857Z,28.30
2023-01-21T00:12:42.882Z,28.26
2023-01-21T00:13:12.923Z,28.34
2023-01-21T00:13:42.943Z,28.31
2023-01-21T00:14:12.967Z,28.30
2023-01-21T00:14:42.981Z,28.35
2023-01-21T00:15:13.005Z,28.30
2023-01-21T00:15:43.090Z,28.29
2023-01-21T00:16:13.243Z,28.30
2023-01-21T00:16:43.203Z,28.34
2023-01-21T00:17:13.228Z,28.32
2023-01-21T00:17:43.250Z,28.32
2023-01-21T00:18:13.297Z,28.37
2023-01-21T00:18:43.298Z,28.32
2023-01-21T00:19:13.337Z,28.32
2023-01-21T00:19:43.339Z,28.34
2023-01-21T00:20:13.373Z,28.32
2023-01-21T00:20:43.451Z,28.34
2023-01-21T00:21:13.511Z,28.29
2023-01-21T00:21:43.495Z,28.29
2023-01-21T00:22:13.519Z,28.27
2023-01-21T00:22:43.540Z,28.24
2023-01-21T00:23:13.676Z,28.34
2023-01-21T00:23:43.661Z,28.32
2023-01-21T00:24:13.776Z,28.30
2023-01-21T00:24:43.885Z,28.34
2023-01-21T00:25:14.002Z,28.30
2023-01-21T00:25:44.110Z,28.27
2023-01-21T00:26:14.219Z,28.29
2023-01-21T00:26:44.333Z,28.36
2023-01-21T00:27:14.439Z,28.32
2023-01-21T00:27:44.558Z,28.35
2023-01-21T00:28:14.688Z,28.30
2023-01-21T00:28:44.676Z,28.34
2023-01-21T00:29:14.790Z,28.29
2023-01-21T00:29:44.899Z,28.24
2023-01-21T00:30:15.247Z,28.29
2023-01-21T00:30:45.237Z,28.30
2023-01-21T00:31:15.368Z,28.29
2023-01-21T00:31:45.342Z,28.27
2023-01-21T00:32:15.268Z,28.34
2023-01-21T00:32:45.251Z,28.29
2023-01-21T00:33:15.270Z,28.29
2023-01-21T00:33:45.322Z,28.24
2023-01-21T00:34:15.350Z,28.29
2023-01-21T00:34:45.363Z,28.25
2023-01-21T00:35:15.401Z,28.25
2023-01-21T00:35:45.436Z,28.24
2023-01-21T00:36:15.459Z,28.27
2023-01-21T00:36:45.501Z,28.19
2023-01-21T00:37:15.522Z,28.23
2023-01-21T00:37:45.542Z,28.25
2023-01-21T00:38:15.580Z,28.22
2023-01-21T00:38:45.596Z,28.22
2023-01-21T00:39:15.619Z,28.22
2023-01-21T00:39:45.644Z,28.25
2023-01-21T00:40:16.187Z,28.29
2023-01-21T00:40:45.718Z,28.19
2023-01-21T00:41:15.738Z,28.25
2023-01-21T00:41:45.783Z,28.22
2023-01-21T00:42:15.800Z,28.29
2023-01-21T00:42:45.807Z,28.27
2023-01-21T00:43:15.855Z,28.25
2023-01-21T00:43:45.871Z,28.20
2023-01-21T00:44:15.899Z,28.23
2023-01-21T00:44:45.922Z,28.19
2023-01-21T00:45:15.953Z,28.23
2023-01-21T00:45:45.988Z,28.23
2023-01-21T00:46:16.056Z,28.17
2023-01-21T00:46:46.083Z,28.25
2023-01-21T00:47:16.094Z,28.20
2023-01-21T00:47:46.132Z,28.20
2023-01-21T00:48:16.146Z,28.22
2023-01-21T00:48:46.169Z,28.19
2023-01-21T00:49:16.224Z,28.24
2023-01-21T00:49:46.216Z,28.22
2023-01-21T00:50:16.568Z,28.17
2023-01-21T00:50:46.299Z,28.19
2023-01-21T00:51:16.400Z,28.19
2023-01-21T00:51:46.422Z,28.17
2023-01-21T00:52:16.444Z,28.23
2023-01-21T00:52:46.470Z,28.19
2023-01-21T00:53:16.517Z,28.15
2023-01-21T00:53:46.548Z,28.19
2023-01-21T00:54:16.569Z,28.17
2023-01-21T00:54:46.615Z,28.19
2023-01-21T00:55:16.619Z,28.17
2023-01-21T00:55:46.694Z,28.22
2023-01-21T00:56:16.796Z,28.17
2023-01-21T00:56:46.858Z,28.22
2023-01-21T00:57:16.890Z,28.23
2023-01-21T00:57:46.986Z,28.17
2023-01-21T00:58:17.079Z,28.19
2023-01-21T00:58:47.042Z,28.20
2023-01-21T00:59:17.081Z,28.24
2023-01-21T00:59:47.123Z,28.25
2023-01-21T01:00:17.521Z,28.20
2023-01-21T01:00:47.140Z,28.19
2023-01-21T01:01:17.246Z,28.17
2023-01-21T01:01:47.314Z,28.20
2023-01-21T01:02:17.376Z,28.23
2023-01-21T01:02:47.439Z,28.19
2023-01-21T01:03:17.443Z,28.20
2023-01-21T01:03:47.470Z,28.22
2023-01-21T01:04:17.487Z,28.22
2023-01-21T01:04:47.567Z,28.23
2023-01-21T01:05:17.556Z,28.20
2023-01-21T01:05:47.596Z,28.23
2023-01-21T01:06:17.613Z,28.25
2023-01-21T01:06:47.645Z,28.20
2023-01-21T01:07:17.669Z,28.23
2023-01-21T01:07:47.687Z,28.27
2023-01-21T01:08:17.716Z,28.25
2023-01-21T01:08:47.739Z,28.28
2023-01-21T01:09:17.765Z,28.30
2023-01-21T01:09:47.800Z,28.25
2023-01-21T01:10:18.112Z,28.22
2023-01-21T01:10:47.925Z,28.30
2023-01-21T01:11:17.945Z,28.28
2023-01-21T01:11:47.967Z,28.28
2023-01-21T01:12:17.994Z,28.27
2023-01-21T01:12:48.018Z,28.25
2023-01-21T01:13:18.047Z,28.27
2023-01-21T01:13:48.069Z,28.25
2023-01-21T01:14:18.097Z,28.23
2023-01-21T01:14:48.116Z,28.29
2023-01-21T01:15:18.142Z,28.27
2023-01-21T01:15:48.197Z,28.23
2023-01-21T01:16:18.340Z,28.22
2023-01-21T01:16:48.244Z,28.25
2023-01-21T01:17:18.271Z,28.30
2023-01-21T01:17:48.292Z,28.25
2023-01-21T01:18:18.339Z,28.14
2023-01-21T01:18:48.366Z,28.11
2023-01-21T01:19:18.391Z,28.15
2023-01-21T01:19:48.415Z,28.22
2023-01-21T01:20:18.733Z,28.20
2023-01-21T01:20:48.524Z,28.14
2023-01-21T01:21:18.543Z,28.19
2023-01-21T01:21:48.558Z,28.19
2023-01-21T01:22:18.582Z,28.20
2023-01-21T01:22:48.631Z,28.15
2023-01-21T01:23:18.774Z,28.22
2023-01-21T01:23:48.779Z,28.17
2023-01-21T01:24:57.875Z,28.23
2023-01-21T01:25:27.943Z,28.20
2023-01-21T01:25:58.030Z,28.17
2023-01-21T01:26:28.103Z,28.19
2023-01-21T01:26:58.166Z,28.18
2023-01-21T01:27:28.286Z,28.17
2023-01-21T01:27:58.357Z,28.12
2023-01-21T01:28:28.467Z,28.20
2023-01-21T01:28:58.543Z,28.22
2023-01-21T01:29:28.632Z,28.16
2023-01-21T01:29:58.688Z,28.20
2023-01-21T01:30:28.768Z,28.21
2023-01-21T01:30:59.049Z,28.23
2023-01-21T01:31:28.965Z,28.21
2023-01-21T01:31:59.021Z,28.21
2023-01-21T01:32:29.100Z,28.21
2023-01-21T01:32:59.165Z,28.25
2023-01-21T01:33:29.245Z,28.17
2023-01-21T01:33:59.312Z,28.20
2023-01-21T01:34:29.341Z,28.12
2023-01-21T01:34:59.447Z,28.17
2023-01-21T01:35:29.588Z,28.17
2023-01-21T01:35:59.685Z,28.18
2023-01-21T01:36:29.687Z,28.14
2023-01-21T01:36:59.784Z,28.17
2023-01-21T01:37:29.907Z,28.09
2023-01-21T01:37:59.883Z,28.17
2023-01-21T01:38:29.995Z,28.09
2023-01-21T01:39:00.123Z,28.18
2023-01-21T01:39:30.224Z,28.17
2023-01-21T01:40:00.330Z,28.15
2023-01-21T01:40:30.446Z,28.17
2023-01-21T01:41:00.578Z,28.09
2023-01-21T01:41:30.575Z,28.15
2023-01-21T01:42:00.677Z,28.18
2023-01-21T01:42:30.791Z,28.10
2023-01-21T01:43:00.913Z,28.13
2023-01-21T01:43:30.898Z,28.07
2023-01-21T01:44:01.019Z,28.17
2023-01-21T01:44:31.116Z,28.15
2023-01-21T01:45:01.227Z,28.12
2023-01-21T01:45:31.337Z,28.12
2023-01-21T01:46:01.368Z,28.18
2023-01-21T01:46:31.406Z,28.12
2023-01-21T01:47:01.405Z,28.05
2023-01-21T01:47:31.515Z,28.12
2023-01-21T01:48:01.637Z,28.07
2023-01-21T01:48:31.743Z,28.07
2023-01-21T01:49:01.862Z,28.10
2023-01-21T01:49:31.967Z,28.20
2023-01-21T01:50:02.083Z,28.17
2023-01-21T01:50:32.218Z,28.12
2023-01-21T01:51:02.387Z,28.18
2023-01-21T01:51:32.353Z,28.17
2023-01-21T01:52:02.480Z,28.15
2023-01-21T01:52:32.580Z,28.20
2023-01-21T01:53:02.692Z,28.13
2023-01-21T01:53:32.856Z,28.13
2023-01-21T01:54:02.845Z,28.15
2023-01-21T01:54:32.952Z,28.09
2023-01-21T01:55:03.069Z,28.12
2023-01-21T01:55:33.177Z,28.10
2023-01-21T01:56:03.308Z,28.12
2023-01-21T01:56:33.297Z,28.15
2023-01-21T01:57:03.422Z,28.10
2023-01-21T01:57:33.404Z,28.10
2023-01-21T01:58:03.521Z,28.10
2023-01-21T01:58:33.623Z,28.07
2023-01-21T01:59:03.753Z,28.10
2023-01-21T01:59:33.873Z,28.07
2023-01-21T02:00:03.962Z,28.05
2023-01-21T02:00:34.083Z,28.05
2023-01-21T02:01:04.213Z,28.08
2023-01-21T02:01:34.227Z,28.15
2023-01-21T02:02:04.324Z,28.10
2023-01-21T02:02:34.465Z,28.12
2023-01-21T02:03:04.544Z,28.09
2023-01-21T02:03:34.552Z,28.13
2023-01-21T02:04:04.543Z,28.10
2023-01-21T02:04:34.651Z,28.05
2023-01-21T02:05:04.770Z,28.08
2023-01-21T02:05:34.763Z,28.10
2023-01-21T02:06:04.910Z,28.07
2023-01-21T02:06:34.890Z,28.01
2023-01-21T02:07:05.007Z,28.02
2023-01-21T02:07:35.108Z,28.07
2023-01-21T02:08:05.219Z,28.02
2023-01-21T02:08:35.332Z,28.05
2023-01-21T02:09:05.452Z,28.05
2023-01-21T02:09:35.559Z,28.07
2023-01-21T02:10:05.667Z,28.08
2023-01-21T02:10:35.779Z,28.07
2023-01-21T02:11:05.917Z,28.05
2023-01-21T02:11:35.905Z,27.99
2023-01-21T02:12:06.017Z,28.07
2023-01-21T02:12:36.124Z,28.05
2023-01-21T02:13:06.239Z,28.07
2023-01-21T02:13:36.357Z,28.04
2023-01-21T02:14:06.355Z,28.01
2023-01-21T02:14:36.484Z,28.05
2023-01-21T02:15:06.560Z,28.10
2023-01-21T02:15:36.692Z,28.05
2023-01-21T02:16:06.821Z,28.04
2023-01-21T02:16:36.850Z,28.05
2023-01-21T02:17:06.947Z,28.04
2023-01-21T02:17:37.050Z,28.04
2023-01-21T02:18:07.172Z,27.99
2023-01-21T02:18:37.273Z,27.99
2023-01-21T02:19:07.390Z,28.02
2023-01-21T02:19:37.508Z,28.04
2023-01-21T02:20:07.616Z,28.02
2023-01-21T02:20:37.729Z,28.01
2023-01-21T02:21:07.893Z,28.07
2023-01-21T02:21:37.838Z,27.97
2023-01-21T02:22:07.952Z,27.91
2023-01-21T02:22:38.065Z,27.96
2023-01-21T02:23:08.176Z,28.04
2023-01-21T02:23:38.300Z,28.02
2023-01-21T02:24:08.281Z,27.97
2023-01-21T02:24:38.381Z,28.02
2023-01-21T02:25:08.452Z,28.05
2023-01-21T02:25:38.530Z,28.02
2023-01-21T02:26:08.621Z,28.00
2023-01-21T02:26:38.691Z,27.99
2023-01-21T02:27:08.765Z,27.99
2023-01-21T02:27:38.842Z,28.01
2023-01-21T02:28:08.915Z,27.99
2023-01-21T02:28:39.001Z,28.01
2023-01-21T02:29:09.076Z,27.99
2023-01-21T02:29:39.146Z,28.05
2023-01-21T02:30:09.215Z,27.96
2023-01-21T02:30:39.318Z,28.07
2023-01-21T02:31:09.530Z,28.04
2023-01-21T02:31:39.521Z,28.01
2023-01-21T02:32:09.609Z,27.96
2023-01-21T02:32:39.690Z,28.07
2023-01-21T02:33:09.771Z,28.07
2023-01-21T02:33:39.846Z,28.01
2023-01-21T02:34:09.910Z,27.96
2023-01-21T02:34:40.017Z,28.02
2023-01-21T02:35:10.113Z,28.05
2023-01-21T02:35:40.224Z,28.02
2023-01-21T02:36:10.216Z,27.99
2023-01-21T02:36:40.352Z,27.99
2023-01-21T02:37:10.446Z,28.04
2023-01-21T02:37:40.555Z,28.04
2023-01-21T02:38:10.673Z,28.02
2023-01-21T02:38:40.796Z,27.99
2023-01-21T02:39:10.824Z,27.96
2023-01-21T02:39:40.927Z,28.00
2023-01-21T02:40:11.042Z,27.97
2023-01-21T02:40:41.162Z,28.00
2023-01-21T02:41:11.279Z,28.02
2023-01-21T02:41:41.390Z,27.99
2023-01-21T02:42:11.492Z,27.92
2023-01-21T02:42:41.605Z,27.99
2023-01-21T02:43:11.717Z,27.91
2023-01-21T02:43:41.845Z,28.00
2023-01-21T02:44:11.856Z,27.96
2023-01-21T02:44:41.950Z,28.08
2023-01-21T02:45:12.060Z,28.04
2023-01-21T02:45:42.055Z,27.98
2023-01-21T02:46:12.184Z,28.05
2023-01-21T02:46:42.323Z,28.03
2023-01-21T02:47:12.327Z,27.96
2023-01-21T02:47:42.439Z,27.97
2023-01-21T02:48:12.551Z,27.85
2023-01-21T02:48:42.666Z,27.94
2023-01-21T02:49:12.658Z,27.91
2023-01-21T02:49:42.767Z,27.92
2023-01-21T02:50:12.881Z,27.92
2023-01-21T02:50:42.994Z,27.92
2023-01-21T02:51:13.022Z,27.97
2023-01-21T02:51:43.131Z,27.94
2023-01-21T02:52:13.083Z,27.99
2023-01-21T02:52:43.205Z,28.00
2023-01-21T02:53:13.314Z,27.98
2023-01-21T02:53:43.427Z,27.96
2023-01-21T02:54:13.533Z,28.00
2023-01-21T02:54:43.653Z,27.97
2023-01-21T02:55:13.758Z,28.07
2023-01-21T02:55:43.875Z,27.98
2023-01-21T02:56:13.996Z,27.98
2023-01-21T02:56:44.129Z,27.96
2023-01-21T02:57:14.119Z,27.98
2023-01-21T02:57:44.110Z,27.98
2023-01-21T02:58:14.214Z,28.00
2023-01-21T02:58:44.336Z,27.96
2023-01-21T02:59:14.323Z,27.98
2023-01-21T02:59:44.430Z,28.02
2023-01-21T03:00:14.848Z,27.96
2023-01-21T03:00:44.658Z,27.97
2023-01-21T03:01:14.731Z,27.95
2023-01-21T03:01:44.929Z,27.94
2023-01-21T03:02:14.849Z,28.03
2023-01-21T03:02:44.822Z,27.94
2023-01-21T03:03:14.953Z,27.96
2023-01-21T03:03:45.047Z,27.96
2023-01-21T03:04:15.152Z,28.02
2023-01-21T03:04:45.276Z,27.97
2023-01-21T03:05:15.272Z,27.91
2023-01-21T03:05:45.376Z,28.02
2023-01-21T03:06:15.491Z,27.97
2023-01-21T03:06:45.603Z,27.91
2023-01-21T03:07:15.762Z,27.94
2023-01-21T03:07:45.733Z,27.92
2023-01-21T03:08:15.846Z,27.87
2023-01-21T03:08:45.965Z,27.94
2023-01-21T03:09:16.009Z,27.89
2023-01-21T03:09:46.123Z,27.96
2023-01-21T03:10:16.531Z,27.92
2023-01-21T03:10:46.347Z,27.96
2023-01-21T03:11:16.469Z,27.89
2023-01-21T03:11:46.588Z,27.93
2023-01-21T03:12:16.711Z,27.86
2023-01-21T03:12:46.688Z,27.96
2023-01-21T03:13:16.799Z,27.92
2023-01-21T03:13:46.914Z,27.94
2023-01-21T03:14:17.037Z,27.94
2023-01-21T03:14:47.142Z,27.93
2023-01-21T03:15:17.253Z,27.87
2023-01-21T03:15:47.363Z,27.91
2023-01-21T03:16:17.573Z,27.87
2023-01-21T03:16:47.555Z,27.94
2023-01-21T03:17:17.675Z,27.84
2023-01-21T03:17:47.662Z,27.83
2023-01-21T03:18:17.771Z,27.82
2023-01-21T03:18:47.879Z,27.87
2023-01-21T03:19:17.990Z,27.92
2023-01-21T03:19:48.102Z,27.91
2023-01-21T03:20:18.465Z,27.87
2023-01-21T03:20:48.281Z,27.87
2023-01-21T03:21:18.389Z,27.97
2023-01-21T03:21:48.491Z,27.91
2023-01-21T03:22:18.645Z,27.86
2023-01-21T03:22:48.594Z,27.94
2023-01-21T03:23:18.713Z,27.87
2023-01-21T03:23:48.818Z,27.96
2023-01-21T03:24:18.933Z,27.94
2023-01-21T03:24:49.020Z,27.94
2023-01-21T03:25:19.092Z,27.92
2023-01-21T03:25:49.168Z,27.92
2023-01-21T03:26:19.242Z,27.91
2023-01-21T03:26:49.310Z,27.91
2023-01-21T03:27:19.393Z,27.89
2023-01-21T03:27:49.393Z,27.89
2023-01-21T03:28:19.479Z,27.87
2023-01-21T03:28:49.548Z,27.91
2023-01-21T03:29:19.624Z,27.91
2023-01-21T03:29:49.651Z,27.91
2023-01-21T03:30:19.908Z,27.94
2023-01-21T03:30:49.762Z,27.96
2023-01-21T03:31:19.784Z,27.92
2023-01-21T03:31:49.833Z,27.92
2023-01-21T03:32:19.794Z,27.89
2023-01-21T03:32:49.882Z,27.93
2023-01-21T03:33:19.945Z,27.95
2023-01-21T03:33:50.024Z,27.95
2023-01-21T03:34:20.118Z,28.02
2023-01-21T03:34:50.127Z,27.96
2023-01-21T03:35:20.241Z,27.97
2023-01-21T03:35:50.359Z,27.93
2023-01-21T03:36:20.473Z,27.91
2023-01-21T03:36:50.576Z,27.92
2023-01-21T03:37:20.830Z,27.98
2023-01-21T03:37:50.778Z,27.97
2023-01-21T03:38:20.783Z,27.94
2023-01-21T03:38:50.896Z,28.00
2023-01-21T03:39:21.017Z,28.00
2023-01-21T03:39:51.120Z,27.97
2023-01-21T03:40:21.234Z,27.98
2023-01-21T03:40:51.349Z,27.95
2023-01-21T03:41:21.476Z,27.98
2023-01-21T03:41:51.457Z,27.95
2023-01-21T03:42:21.582Z,28.02
2023-01-21T03:42:51.692Z,27.98
2023-01-21T03:43:21.750Z,28.00
2023-01-21T03:43:51.859Z,28.00
2023-01-21T03:44:21.976Z,28.03
2023-01-21T03:44:52.084Z,28.00
2023-01-21T03:45:22.249Z,27.95
2023-01-21T03:45:52.261Z,28.00
2023-01-21T03:46:22.229Z,27.90
2023-01-21T03:46:52.334Z,27.97
2023-01-21T03:47:22.451Z,27.92
2023-01-21T03:47:52.566Z,27.97
2023-01-21T03:48:22.688Z,27.92
2023-01-21T03:48:52.673Z,27.95
2023-01-21T03:49:22.785Z,27.93
2023-01-21T03:49:52.774Z,27.90
2023-01-21T03:50:22.896Z,27.93
2023-01-21T03:50:53.039Z,27.92
2023-01-21T03:51:23.033Z,27.95
2023-01-21T03:51:53.151Z,27.97
2023-01-21T03:52:23.158Z,28.01
2023-01-21T03:52:53.243Z,27.98
2023-01-21T03:53:23.362Z,27.97
2023-01-21T03:53:53.351Z,27.93
2023-01-21T03:54:23.463Z,28.00
2023-01-21T03:54:53.581Z,28.00
2023-01-21T03:55:23.694Z,27.93
2023-01-21T03:55:53.809Z,27.95
2023-01-21T03:56:23.915Z,27.95
2023-01-21T03:56:54.028Z,27.90
2023-01-21T03:57:24.189Z,27.93
2023-01-21T03:57:54.177Z,27.97
2023-01-21T03:58:24.291Z,27.92
2023-01-21T03:58:54.404Z,27.97
2023-01-21T03:59:24.523Z,27.90
2023-01-21T03:59:54.640Z,27.87
2023-01-21T04:00:24.763Z,27.95
2023-01-21T04:00:54.923Z,27.93
2023-01-21T04:01:24.919Z,27.92
2023-01-21T04:01:55.091Z,27.90
2023-01-21T04:02:25.095Z,27.93
2023-01-21T04:02:55.079Z,27.89
2023-01-21T04:03:25.205Z,27.90
2023-01-21T04:03:55.196Z,27.84
2023-01-21T04:04:25.303Z,27.85
2023-01-21T04:04:55.424Z,27.87
2023-01-21T04:05:25.527Z,27.95
2023-01-21T04:05:55.637Z,27.89
2023-01-21T04:06:25.754Z,27.90
2023-01-21T04:06:55.871Z,27.85
2023-01-21T04:07:26.007Z,27.87
2023-01-21T04:07:56.089Z,27.89
2023-01-21T04:08:26.220Z,27.85
2023-01-21T04:08:56.207Z,27.90
2023-01-21T04:09:26.323Z,27.87
2023-01-21T04:09:56.435Z,27.85
2023-01-21T04:10:26.548Z,27.87
2023-01-21T04:10:56.657Z,27.82
2023-01-21T04:11:26.772Z,27.82
2023-01-21T04:11:56.756Z,27.90
2023-01-21T04:12:26.867Z,27.84
2023-01-21T04:12:56.976Z,27.82
2023-01-21T04:13:27.098Z,27.83
2023-01-21T04:13:57.201Z,27.87
2023-01-21T04:14:27.322Z,27.87
2023-01-21T04:14:57.524Z,27.87
2023-01-21T04:15:27.477Z,27.77
2023-01-21T04:15:57.590Z,27.87
2023-01-21T04:16:27.733Z,27.85
2023-01-21T04:16:57.729Z,27.84
2023-01-21T04:17:27.834Z,27.85
2023-01-21T04:17:57.942Z,27.85
2023-01-21T04:18:28.060Z,27.82
2023-01-21T04:18:58.170Z,27.87
2023-01-21T04:19:28.316Z,27.77
2023-01-21T04:19:58.337Z,27.80
2023-01-21T04:20:28.458Z,27.77
2023-01-21T04:20:58.450Z,27.81
2023-01-21T04:21:28.562Z,27.81
2023-01-21T04:21:58.681Z,27.89
2023-01-21T04:22:28.769Z,27.82
2023-01-21T04:22:58.856Z,27.81
2023-01-21T04:23:28.984Z,27.84
2023-01-21T04:23:59.081Z,27.79
2023-01-21T04:24:29.190Z,27.82
2023-01-21T04:24:59.264Z,27.81
2023-01-21T04:25:29.334Z,27.74
2023-01-21T04:25:59.407Z,27.79
2023-01-21T04:26:29.481Z,27.85
2023-01-21T04:26:59.567Z,27.84
2023-01-21T04:27:29.622Z,27.85
2023-01-21T04:27:59.692Z,27.84
2023-01-21T04:28:29.734Z,27.78
2023-01-21T04:28:59.807Z,27.87
2023-01-21T04:29:29.882Z,27.81
2023-01-21T04:29:59.954Z,27.81
2023-01-21T04:30:30.033Z,27.81
2023-01-21T04:31:00.199Z,27.81
2023-01-21T04:31:30.204Z,27.82
2023-01-21T04:32:00.313Z,27.82
2023-01-21T04:32:30.282Z,27.77
2023-01-21T04:33:00.354Z,27.82
2023-01-21T04:33:30.593Z,27.82
2023-01-21T04:34:00.532Z,27.82
2023-01-21T04:34:30.608Z,27.79
2023-01-21T04:35:00.725Z,27.82
2023-01-21T04:35:30.838Z,27.87
2023-01-21T04:36:00.948Z,27.85
2023-01-21T04:36:31.064Z,27.82
2023-01-21T04:37:01.166Z,27.87
2023-01-21T04:37:31.303Z,27.80
2023-01-21T04:38:01.393Z,27.79
2023-01-21T04:38:31.513Z,27.85
2023-01-21T04:39:01.578Z,27.82
2023-01-21T04:39:31.541Z,27.80
2023-01-21T04:40:01.647Z,27.85
2023-01-21T04:40:31.762Z,27.77
2023-01-21T04:41:01.871Z,27.79
2023-01-21T04:41:31.988Z,27.84
2023-01-21T04:42:02.098Z,27.79
2023-01-21T04:42:32.210Z,27.77
2023-01-21T04:43:02.340Z,27.72
2023-01-21T04:43:32.439Z,27.77
2023-01-21T04:44:02.558Z,27.79
2023-01-21T04:44:32.661Z,27.82
2023-01-21T04:45:02.777Z,27.79
2023-01-21T04:45:32.908Z,27.77
2023-01-21T04:46:02.970Z,27.82
2023-01-21T04:46:32.954Z,27.79
2023-01-21T04:47:03.066Z,27.79
2023-01-21T04:47:33.178Z,27.76
2023-01-21T04:48:03.305Z,27.74
2023-01-21T04:48:33.420Z,27.71
2023-01-21T04:49:03.523Z,27.82
2023-01-21T04:49:33.643Z,27.80
2023-01-21T04:50:03.765Z,27.69
2023-01-21T04:50:33.861Z,27.68
2023-01-21T04:51:04.028Z,27.69
2023-01-21T04:51:34.001Z,27.63
2023-01-21T04:52:04.118Z,27.69
2023-01-21T04:52:34.256Z,27.71
2023-01-21T04:53:04.345Z,27.69
2023-01-21T04:53:34.494Z,27.80
2023-01-21T04:54:04.475Z,27.74
2023-01-21T04:54:34.597Z,27.77
2023-01-21T04:55:04.709Z,27.82
2023-01-21T04:55:34.709Z,27.71
2023-01-21T04:56:04.825Z,27.87
2023-01-21T04:56:34.972Z,27.80
2023-01-21T04:57:04.935Z,27.83
2023-01-21T04:57:35.047Z,27.77
2023-01-21T04:58:05.165Z,27.77
2023-01-21T04:58:35.283Z,27.80
2023-01-21T04:59:05.402Z,27.88
2023-01-21T04:59:35.512Z,27.83
2023-01-21T05:00:05.628Z,27.83
2023-01-21T05:00:35.742Z,27.85
2023-01-21T05:01:05.889Z,27.82
2023-01-21T05:01:35.879Z,27.80
2023-01-21T05:02:06.038Z,27.76
2023-01-21T05:02:36.079Z,27.80
2023-01-21T05:03:06.047Z,27.82
2023-01-21T05:03:36.175Z,27.77
2023-01-21T05:04:06.185Z,27.78
2023-01-21T05:04:36.295Z,27.77
2023-01-21T05:05:06.402Z,27.80
2023-01-21T05:05:36.533Z,27.82
2023-01-21T05:06:06.532Z,27.80
2023-01-21T05:06:36.640Z,27.83
2023-01-21T05:07:06.752Z,27.84
2023-01-21T05:07:36.930Z,27.83
2023-01-21T05:08:06.943Z,27.75
2023-01-21T05:08:37.067Z,27.78
2023-01-21T05:09:07.177Z,27.75
2023-01-21T05:09:37.300Z,27.75
2023-01-21T05:10:07.294Z,27.76
2023-01-21T05:10:37.409Z,27.77
2023-01-21T05:11:07.539Z,27.76
2023-01-21T05:11:37.649Z,27.72
2023-01-21T05:12:07.662Z,27.75
2023-01-21T05:12:37.780Z,27.72
2023-01-21T05:13:07.891Z,27.67
2023-01-21T05:13:37.888Z,27.72
2023-01-21T05:14:08.004Z,27.77
2023-01-21T05:14:38.107Z,27.74
2023-01-21T05:15:08.097Z,27.72
2023-01-21T05:15:38.245Z,27.72
2023-01-21T05:16:08.359Z,27.72
2023-01-21T05:16:38.447Z,27.70
2023-01-21T05:17:08.299Z,27.71
2023-01-21T05:17:38.421Z,27.75
2023-01-21T05:18:08.529Z,27.77
2023-01-21T05:18:38.543Z,27.69
2023-01-21T05:19:08.635Z,27.77
2023-01-21T05:19:38.752Z,27.72
2023-01-21T05:20:08.740Z,27.79
2023-01-21T05:20:38.853Z,27.68
2023-01-21T05:21:08.982Z,27.69
2023-01-21T05:21:39.076Z,27.71
2023-01-21T05:22:09.184Z,27.71
2023-01-21T05:22:39.316Z,27.75
2023-01-21T05:23:09.435Z,27.68
2023-01-21T05:23:39.526Z,27.72
2023-01-21T05:24:09.514Z,27.74
2023-01-21T05:24:39.608Z,27.68
2023-01-21T05:25:09.680Z,27.58
2023-01-21T05:25:39.766Z,27.77
2023-01-21T05:26:09.829Z,27.68
2023-01-21T05:26:39.905Z,27.75
2023-01-21T05:27:09.972Z,27.69
2023-01-21T05:27:40.047Z,27.71
2023-01-21T05:28:10.131Z,27.68
2023-01-21T05:28:40.201Z,27.71
2023-01-21T05:29:10.270Z,27.69
2023-01-21T05:29:40.343Z,27.63
2023-01-21T05:30:10.419Z,27.69
2023-01-21T05:30:41.810Z,27.67
2023-01-21T05:31:10.645Z,27.66
2023-01-21T05:31:40.661Z,27.62
2023-01-21T05:32:10.617Z,27.67
2023-01-21T05:32:40.695Z,27.64
2023-01-21T05:33:10.767Z,27.70
2023-01-21T05:33:40.857Z,27.67
2023-01-21T05:34:10.930Z,27.63
2023-01-21T05:34:41.026Z,27.74
2023-01-21T05:35:11.143Z,27.69
2023-01-21T05:35:41.253Z,27.69
2023-01-21T05:36:11.370Z,27.68
2023-01-21T05:36:41.481Z,27.62
2023-01-21T05:37:11.596Z,27.71
2023-01-21T05:37:41.707Z,27.69
2023-01-21T05:38:11.820Z,27.72
2023-01-21T05:38:41.969Z,27.67
2023-01-21T05:39:12.160Z,27.66
2023-01-21T05:39:42.133Z,27.69
2023-01-21T05:40:12.248Z,27.69
2023-01-21T05:40:42.347Z,27.70
2023-01-21T05:41:12.464Z,27.66
2023-01-21T05:41:42.580Z,27.71
2023-01-21T05:42:12.692Z,27.67
2023-01-21T05:42:42.811Z,27.72
2023-01-21T05:43:12.916Z,27.69
2023-01-21T05:43:43.058Z,27.66
2023-01-21T05:44:13.027Z,27.67
2023-01-21T05:44:43.141Z,27.66
2023-01-21T05:45:13.267Z,27.71
2023-01-21T05:45:43.358Z,27.72
2023-01-21T05:46:13.548Z,27.66
2023-01-21T05:46:43.544Z,27.66
2023-01-21T05:47:13.660Z,27.66
2023-01-21T05:47:43.773Z,27.59
2023-01-21T05:48:13.881Z,27.64
2023-01-21T05:48:44.001Z,27.64
2023-01-21T05:49:13.994Z,27.64
2023-01-21T05:49:44.095Z,27.64
2023-01-21T05:50:14.419Z,27.59
2023-01-21T05:50:44.326Z,27.56
2023-01-21T05:51:14.362Z,27.64
2023-01-21T05:51:44.349Z,27.61
2023-01-21T05:52:14.460Z,27.67
2023-01-21T05:52:44.581Z,27.69
2023-01-21T05:53:14.686Z,27.53
2023-01-21T05:53:44.834Z,27.72
2023-01-21T05:54:14.804Z,27.64
2023-01-21T05:55:00.603Z,27.77
2023-01-21T05:55:14.928Z,27.69
2023-01-21T05:55:45.040Z,27.61
2023-01-21T05:56:15.159Z,27.72
2023-01-21T05:56:45.269Z,27.70
2023-01-21T05:57:15.379Z,27.64
2023-01-21T05:57:45.497Z,27.64
2023-01-21T05:58:15.606Z,27.66
2023-01-21T05:58:45.723Z,27.67
2023-01-21T05:59:15.716Z,27.70
2023-01-21T05:59:45.823Z,27.64
2023-01-21T06:00:16.470Z,27.69
2023-01-21T06:00:45.951Z,27.67
2023-01-21T06:01:16.065Z,27.70
2023-01-21T06:01:46.171Z,27.67
2023-01-21T06:02:16.333Z,27.72
2023-01-21T06:02:46.353Z,27.67
2023-01-21T06:03:16.480Z,27.69
2023-01-21T06:03:46.648Z,27.66
2023-01-21T06:04:16.609Z,27.67
2023-01-21T06:04:46.723Z,27.70
2023-01-21T06:05:16.837Z,27.67
2023-01-21T06:05:46.966Z,27.64
2023-01-21T06:06:17.066Z,27.69
2023-01-21T06:06:47.182Z,27.59
2023-01-21T06:07:17.297Z,27.67
2023-01-21T06:07:47.406Z,27.67
2023-01-21T06:08:17.529Z,27.66
2023-01-21T06:08:47.659Z,27.70
2023-01-21T06:09:17.646Z,27.67
2023-01-21T06:09:47.744Z,27.70
2023-01-21T06:10:18.125Z,27.65
2023-01-21T06:10:47.962Z,27.68
2023-01-21T06:11:18.074Z,27.68
2023-01-21T06:11:48.183Z,27.67
2023-01-21T06:12:18.324Z,27.69
2023-01-21T06:12:48.402Z,27.65
2023-01-21T06:13:18.526Z,27.72
2023-01-21T06:13:48.651Z,27.72
2023-01-21T06:14:18.639Z,27.70
2023-01-21T06:14:48.761Z,27.70
2023-01-21T06:15:18.855Z,27.68
2023-01-21T06:15:49.034Z,27.68
2023-01-21T06:16:19.054Z,27.69
2023-01-21T06:16:49.158Z,27.62
2023-01-21T06:17:19.272Z,27.72
2023-01-21T06:17:49.387Z,27.73
2023-01-21T06:18:19.516Z,27.73
2023-01-21T06:18:49.514Z,27.70
2023-01-21T06:19:19.621Z,27.69
2023-01-21T06:19:49.603Z,27.75
2023-01-21T06:20:19.884Z,27.70
2023-01-21T06:20:49.735Z,27.70
2023-01-21T06:21:19.843Z,27.72
2023-01-21T06:21:49.950Z,27.73
2023-01-21T06:22:20.066Z,27.72
2023-01-21T06:22:50.172Z,27.67
2023-01-21T06:23:20.311Z,27.67
2023-01-21T06:23:50.306Z,27.68
2023-01-21T06:24:20.319Z,27.69
2023-01-21T06:24:50.369Z,27.61
2023-01-21T06:25:20.438Z,27.61
2023-01-21T06:25:50.518Z,27.69
2023-01-21T06:26:20.594Z,27.64
2023-01-21T06:26:50.662Z,27.64
2023-01-21T06:27:20.736Z,27.66
2023-01-21T06:27:50.809Z,27.66